Time;durP1;ratioP1;P1;durP2;ratioP2;P2;SDS_P1;SDS_P2;PMS_P1;PMS_P2;Temp;Humidity;BMP_temperature;BMP_pressure;BME280_temperature;BME280_humidity;BME280_pressure;Samples;Min_cycle;Max_cycle;Signal;HPM_P1;HPM_P2
2022/01/20 00:00:33;;;;;;;22.90;4.37;;;4.40;99.90;;;;;;5102338;28;20214;-77
2022/01/20 00:03:03;;;;;;;30.73;3.97;;;4.30;99.90;;;;;;5106180;28;20260;-77
2022/01/20 00:06:20;;;;;;;22.77;4.40;;;4.20;99.90;;;;;;5094379;28;20214;-77
2022/01/20 00:27:52;;;;;;;32.30;4.57;;;4.20;99.90;;;;;;5107012;27;20582;-76
2022/01/20 00:30:35;;;;;;;20.87;3.27;;;4.20;99.90;;;;;;5106897;27;20210;-77
2022/01/20 00:33:16;;;;;;;14.73;4.70;;;4.30;99.90;;;;;;5118704;27;20222;-77
2022/01/20 00:38:22;;;;;;;20.10;2.87;;;4.30;99.90;;;;;;5106571;28;20213;-77
2022/01/20 00:40:50;;;;;;;15.90;2.93;;;4.30;99.90;;;;;;5102134;27;20703;-77
2022/01/20 00:43:17;;;;;;;18.63;3.03;;;4.30;99.90;;;;;;5112520;27;20203;-77
2022/01/20 00:45:46;;;;;;;19.20;3.30;;;4.30;99.90;;;;;;5095291;27;20209;-77
2022/01/20 00:48:18;;;;;;;19.83;3.03;;;4.30;99.90;;;;;;5111616;27;20231;-77
2022/01/20 00:50:44;;;;;;;11.63;2.57;;;4.30;99.90;;;;;;5112142;27;20210;-77
2022/01/20 00:53:11;;;;;;;9.13;2.77;;;4.30;99.90;;;;;;5112958;27;20660;-77
2022/01/20 00:55:39;;;;;;;22.27;2.83;;;4.30;99.90;;;;;;5111377;27;20210;-76
2022/01/20 00:58:06;;;;;;;13.27;3.03;;;4.20;99.90;;;;;;5117391;27;20656;-77
2022/01/20 01:00:35;;;;;;;12.03;2.27;;;4.30;99.90;;;;;;5108041;27;20307;-77
2022/01/20 01:03:02;;;;;;;11.30;2.20;;;4.20;99.90;;;;;;5107974;27;20309;-77
2022/01/20 01:05:29;;;;;;;11.40;2.30;;;4.30;99.90;;;;;;5108237;27;20205;-76
2022/01/20 01:07:56;;;;;;;13.83;2.60;;;4.30;99.90;;;;;;5111871;27;20227;-76
2022/01/20 01:10:29;;;;;;;5.67;2.67;;;4.30;99.90;;;;;;5111108;27;20738;-76
2022/01/20 01:13:08;;;;;;;17.83;2.90;;;4.30;99.90;;;;;;5111723;27;20213;-76
2022/01/20 01:15:40;;;;;;;16.67;2.57;;;4.30;99.90;;;;;;5111257;27;20725;-77
2022/01/20 01:23:31;;;;;;;15.10;2.23;;;4.40;99.90;;;;;;5112943;27;20215;-75
2022/01/20 01:25:58;;;;;;;12.53;3.37;;;4.40;99.90;;;;;;5108017;27;20243;-76
2022/01/20 01:28:29;;;;;;;8.07;2.33;;;4.40;99.90;;;;;;5108958;27;20299;-76
2022/01/20 01:33:52;;;;;;;15.73;2.83;;;4.40;99.90;;;;;;5109469;27;20234;-77
2022/01/20 01:36:21;;;;;;;17.03;2.50;;;4.40;99.90;;;;;;5100053;27;20242;-77
2022/01/20 01:38:49;;;;;;;15.73;2.53;;;4.50;99.90;;;;;;5098186;28;20199;-77
2022/01/20 01:41:26;;;;;;;9.60;2.43;;;4.50;99.90;;;;;;5109226;27;20468;-76
2022/01/20 01:43:54;;;;;;;15.23;2.60;;;4.60;99.90;;;;;;5109007;27;20585;-76
2022/01/20 01:46:21;;;;;;;13.57;3.23;;;4.70;99.90;;;;;;5115955;27;20222;-77
2022/01/20 01:48:48;;;;;;;15.20;3.10;;;4.70;99.90;;;;;;5109453;27;20595;-77
2022/01/20 01:51:15;;;;;;;13.53;3.17;;;4.70;99.90;;;;;;5103633;27;20695;-77
2022/01/20 01:53:41;;;;;;;9.03;2.40;;;4.70;99.90;;;;;;5092881;28;20749;-76
2022/01/20 01:56:08;;;;;;;15.70;2.80;;;4.70;99.90;;;;;;5112114;27;20203;-77
2022/01/20 01:58:35;;;;;;;15.17;2.50;;;4.60;99.90;;;;;;5111382;27;20214;-77
2022/01/20 02:01:02;;;;;;;15.87;2.63;;;4.60;99.90;;;;;;5107921;27;20207;-76
2022/01/20 02:03:31;;;;;;;14.17;2.73;;;4.60;99.90;;;;;;5096769;28;20215;-77
2022/01/20 02:08:39;;;;;;;19.73;3.33;;;4.50;99.90;;;;;;5107200;27;20206;-76
2022/01/20 02:19:26;;;;;;;16.40;2.90;;;4.60;99.90;;;;;;5109838;27;20199;-76
2022/01/20 02:21:56;;;;;;;9.83;2.27;;;4.60;99.90;;;;;;5110652;27;20214;-76
2022/01/20 02:24:23;;;;;;;19.30;2.87;;;4.70;99.90;;;;;;5107224;27;20207;-76
2022/01/20 02:26:50;;;;;;;13.47;2.57;;;4.80;99.90;;;;;;5109857;27;20298;-77
2022/01/20 02:29:18;;;;;;;17.00;2.77;;;4.80;99.90;;;;;;5115556;27;20201;-77
2022/01/20 02:31:45;;;;;;;18.50;2.93;;;4.90;99.90;;;;;;5105421;27;20262;-77
2022/01/20 02:34:14;;;;;;;26.20;3.37;;;4.90;99.90;;;;;;5090158;28;20206;-77
2022/01/20 02:36:45;;;;;;;19.83;3.30;;;4.90;99.90;;;;;;5109983;27;20216;-77
2022/01/20 02:39:41;;;;;;;16.90;2.87;;;5.00;99.90;;;;;;5111743;27;20216;-76
2022/01/20 02:45:03;;;;;;;16.57;3.40;;;5.00;99.90;;;;;;5116863;27;20211;-76
2022/01/20 02:47:34;;;;;;;18.77;3.20;;;5.00;99.90;;;;;;5105209;27;20353;-77
2022/01/20 02:50:00;;;;;;;21.73;4.00;;;5.00;99.90;;;;;;5087478;28;20205;-77
2022/01/20 02:52:27;;;;;;;10.00;2.30;;;5.00;99.90;;;;;;5112492;27;20228;-77
2022/01/20 02:54:55;;;;;;;11.73;2.93;;;5.00;99.90;;;;;;5111473;27;20225;-77
2022/01/20 02:57:22;;;;;;;12.93;2.50;;;5.00;99.90;;;;;;5104547;27;20210;-77
2022/01/20 02:59:49;;;;;;;10.80;2.27;;;4.90;99.90;;;;;;5109136;27;20294;-78
2022/01/20 03:02:16;;;;;;;14.97;3.10;;;5.00;99.90;;;;;;5110475;27;20767;-78
2022/01/20 03:04:44;;;;;;;18.57;3.20;;;4.90;99.90;;;;;;5102202;27;20214;-77
2022/01/20 03:07:13;;;;;;;10.00;2.23;;;4.90;99.90;;;;;;5107995;27;20325;-77
2022/01/20 03:09:39;;;;;;;10.10;2.00;;;4.90;99.90;;;;;;5112437;27;20218;-78
2022/01/20 03:12:07;;;;;;;13.47;2.73;;;4.90;99.90;;;;;;5106000;27;20620;-77
2022/01/20 03:14:33;;;;;;;12.90;1.97;;;4.90;99.90;;;;;;5104897;27;20242;-76
2022/01/20 03:17:01;;;;;;;8.60;2.10;;;4.90;99.90;;;;;;5111827;27;20222;-77
2022/01/20 03:19:28;;;;;;;12.87;3.43;;;4.90;99.90;;;;;;5108534;27;20295;-77
2022/01/20 03:21:55;;;;;;;6.77;2.30;;;4.90;99.90;;;;;;5107586;27;20207;-78
2022/01/20 03:24:22;;;;;;;11.63;2.20;;;4.90;99.90;;;;;;5105940;28;20217;-78
2022/01/20 03:26:48;;;;;;;8.40;2.37;;;4.80;99.90;;;;;;5112818;27;20325;-78
2022/01/20 03:29:15;;;;;;;10.87;2.13;;;4.80;99.90;;;;;;5109613;27;20632;-78
2022/01/20 03:31:42;;;;;;;8.90;2.20;;;4.70;99.90;;;;;;5107184;28;20268;-78
2022/01/20 03:34:09;;;;;;;5.63;2.13;;;4.70;99.90;;;;;;5101499;27;20591;-78
2022/01/20 03:36:36;;;;;;;9.50;2.07;;;4.60;99.90;;;;;;5106896;27;20670;-78
2022/01/20 03:39:04;;;;;;;10.10;2.00;;;4.60;99.90;;;;;;5108057;27;20277;-78
2022/01/20 03:41:31;;;;;;;6.77;1.53;;;4.60;99.90;;;;;;5107301;27;20282;-77
2022/01/20 03:43:58;;;;;;;7.77;2.20;;;4.60;99.90;;;;;;5112574;27;20206;-77
2022/01/20 03:46:24;;;;;;;9.30;2.23;;;4.70;99.90;;;;;;5107338;28;20566;-77
2022/01/20 03:49:02;;;;;;;8.50;1.77;;;4.70;99.90;;;;;;5087078;28;20250;-78
2022/01/20 03:51:29;;;;;;;8.63;2.67;;;4.70;99.90;;;;;;5109198;27;20555;-77
2022/01/20 03:53:56;;;;;;;5.27;1.40;;;4.60;99.90;;;;;;5107276;28;20299;-77
2022/01/20 03:56:23;;;;;;;9.90;2.07;;;4.60;99.90;;;;;;5108283;28;20297;-77
2022/01/20 03:58:50;;;;;;;12.80;2.03;;;4.60;99.90;;;;;;5110984;28;20673;-77
2022/01/20 04:01:18;;;;;;;6.77;1.57;;;4.60;99.90;;;;;;5110908;27;20211;-77
2022/01/20 04:03:45;;;;;;;9.10;1.60;;;4.50;99.90;;;;;;5103996;28;20224;-77
2022/01/20 04:06:13;;;;;;;4.13;1.60;;;4.50;99.90;;;;;;5104531;28;20206;-78
2022/01/20 04:08:47;;;;;;;8.57;1.80;;;4.50;99.90;;;;;;5110382;28;20229;-77
2022/01/20 04:11:17;;;;;;;9.03;1.70;;;4.50;99.90;;;;;;5107730;28;20647;-78
2022/01/20 04:13:44;;;;;;;7.03;1.43;;;4.50;99.90;;;;;;5107269;28;20601;-77
2022/01/20 04:16:21;;;;;;;10.23;1.90;;;4.50;99.90;;;;;;5111755;28;20199;-77
2022/01/20 04:18:53;;;;;;;9.87;1.80;;;4.50;99.90;;;;;;5102139;28;20228;-77
2022/01/20 04:21:25;;;;;;;8.43;1.90;;;4.50;99.90;;;;;;5102041;28;20674;-77
2022/01/20 04:23:52;;;;;;;7.87;1.77;;;4.50;99.90;;;;;;5107915;28;20207;-78
2022/01/20 04:26:20;;;;;;;11.20;1.70;;;4.50;99.90;;;;;;5113108;28;20561;-78
2022/01/20 04:28:48;;;;;;;10.97;2.37;;;4.50;99.90;;;;;;5106325;28;20231;-77
2022/01/20 04:31:17;;;;;;;16.30;2.13;;;4.50;99.90;;;;;;5110024;28;20203;-77
2022/01/20 04:33:44;;;;;;;11.23;1.80;;;4.50;99.90;;;;;;5107802;28;20222;-77
2022/01/20 04:36:10;;;;;;;6.13;1.77;;;4.50;99.90;;;;;;5106209;28;20213;-76
2022/01/20 04:38:37;;;;;;;14.17;2.27;;;4.50;99.90;;;;;;5092281;28;20264;-77
2022/01/20 04:41:04;;;;;;;17.27;2.30;;;4.50;99.90;;;;;;5111331;28;20264;-77
2022/01/20 04:43:31;;;;;;;13.63;2.00;;;4.40;99.90;;;;;;5107877;28;20247;-77
2022/01/20 04:46:07;;;;;;;10.67;2.10;;;4.40;99.90;;;;;;5086336;28;20325;-77
2022/01/20 04:59:30;;;;;;;13.73;2.50;;;4.40;99.90;;;;;;5104634;28;20239;-77
2022/01/20 05:01:57;;;;;;;11.97;2.47;;;4.40;99.90;;;;;;5104159;28;20585;-78
2022/01/20 05:04:25;;;;;;;26.40;3.27;;;4.40;99.90;;;;;;5099185;28;20198;-77
2022/01/20 05:06:55;;;;;;;9.90;2.20;;;4.40;99.90;;;;;;5112549;28;20207;-77
2022/01/20 05:09:22;;;;;;;18.70;2.33;;;4.40;99.90;;;;;;5104437;28;20239;-77
2022/01/20 05:11:58;;;;;;;13.10;2.90;;;4.40;99.90;;;;;;5112323;27;20649;-77
2022/01/20 05:14:26;;;;;;;13.03;2.57;;;4.40;99.90;;;;;;5111207;27;20207;-77
2022/01/20 05:16:55;;;;;;;14.83;2.83;;;4.40;99.90;;;;;;5109722;27;20316;-78
2022/01/20 05:19:29;;;;;;;14.87;2.90;;;4.40;99.90;;;;;;5107295;27;20225;-77
2022/01/20 05:21:57;;;;;;;14.77;2.77;;;4.40;99.90;;;;;;5105882;28;20203;-76
2022/01/20 05:24:24;;;;;;;18.60;2.90;;;4.40;99.90;;;;;;5111503;27;20200;-77
2022/01/20 05:26:53;;;;;;;14.20;3.10;;;4.40;99.90;;;;;;5106769;27;20661;-75
2022/01/20 05:29:21;;;;;;;10.73;2.50;;;4.40;99.90;;;;;;5109005;27;20233;-76
2022/01/20 05:31:48;;;;;;;18.50;2.67;;;4.40;99.90;;;;;;5111823;27;20216;-77
2022/01/20 05:34:15;;;;;;;16.57;3.10;;;4.40;99.90;;;;;;5099855;27;20277;-77
2022/01/20 05:36:44;;;;;;;19.03;2.93;;;4.30;99.90;;;;;;5105822;27;20211;-76
2022/01/20 05:39:10;;;;;;;17.70;3.23;;;4.40;99.90;;;;;;5113984;27;20217;-76
2022/01/20 05:41:37;;;;;;;16.97;3.13;;;4.30;99.90;;;;;;5112410;27;20227;-76
2022/01/20 05:44:04;;;;;;;12.87;2.90;;;4.40;99.90;;;;;;5108354;27;20202;-77
2022/01/20 05:46:40;;;;;;;23.63;2.63;;;4.30;99.90;;;;;;5109913;27;20253;-77
2022/01/20 05:49:10;;;;;;;18.33;3.27;;;4.30;99.90;;;;;;5110156;27;20779;-77
2022/01/20 05:51:41;;;;;;;15.87;2.80;;;4.30;99.90;;;;;;5103295;27;20204;-76
2022/01/20 05:54:08;;;;;;;16.23;3.50;;;4.40;99.90;;;;;;5110501;27;20225;-75
2022/01/20 05:56:35;;;;;;;16.87;3.70;;;4.30;99.90;;;;;;5105955;27;20231;-76
2022/01/20 05:59:03;;;;;;;12.47;2.90;;;4.30;99.90;;;;;;5108150;27;20204;-77
2022/01/20 06:01:32;;;;;;;18.37;2.97;;;4.30;99.90;;;;;;5092784;28;20210;-76
2022/01/20 06:03:59;;;;;;;21.83;3.03;;;4.30;99.90;;;;;;5117486;27;20210;-76
2022/01/20 06:06:26;;;;;;;16.33;3.37;;;4.30;99.90;;;;;;5107972;27;20238;-77
2022/01/20 06:08:53;;;;;;;8.70;2.53;;;4.30;99.90;;;;;;5106780;27;20564;-76
2022/01/20 06:11:20;;;;;;;14.67;3.30;;;4.30;99.90;;;;;;5111391;27;20688;-77
2022/01/20 06:13:46;;;;;;;14.47;2.60;;;4.30;99.90;;;;;;5109524;27;20222;-76
2022/01/20 06:16:13;;;;;;;9.90;2.67;;;4.30;99.90;;;;;;5106171;27;20685;-75
2022/01/20 06:18:40;;;;;;;25.63;3.53;;;4.30;99.90;;;;;;5103896;28;20229;-75
2022/01/20 06:21:07;;;;;;;20.03;3.10;;;4.30;99.90;;;;;;5104399;27;20224;-75
2022/01/20 06:23:34;;;;;;;10.40;3.20;;;4.30;99.90;;;;;;5108624;27;20302;-75
2022/01/20 06:26:05;;;;;;;22.10;2.83;;;4.20;99.90;;;;;;5110367;27;20207;-76
2022/01/20 06:28:33;;;;;;;21.63;3.60;;;4.20;99.90;;;;;;5098705;28;20215;-76
2022/01/20 06:31:00;;;;;;;16.40;2.80;;;4.20;99.90;;;;;;5109189;27;20207;-76
2022/01/20 06:33:27;;;;;;;13.77;2.50;;;4.20;99.90;;;;;;5105954;27;20270;-75
2022/01/20 06:35:54;;;;;;;10.20;2.37;;;4.10;99.90;;;;;;5108645;27;20213;-74
2022/01/20 06:38:21;;;;;;;17.60;2.90;;;4.10;99.90;;;;;;5111826;27;20203;-75
2022/01/20 06:40:48;;;;;;;14.67;3.57;;;4.10;99.90;;;;;;5113270;27;20231;-76
2022/01/20 06:43:15;;;;;;;12.20;2.20;;;4.20;99.90;;;;;;5105116;27;20979;-73
2022/01/20 06:45:42;;;;;;;14.30;3.67;;;4.20;99.90;;;;;;5104916;27;20455;-76
2022/01/20 06:48:09;;;;;;;11.90;2.60;;;4.20;99.90;;;;;;5107918;27;20628;-76
2022/01/20 06:50:36;;;;;;;14.77;2.73;;;4.30;99.90;;;;;;5108166;27;20286;-77
2022/01/20 06:53:02;;;;;;;6.97;2.07;;;4.20;99.90;;;;;;5111133;27;20202;-76
2022/01/20 06:55:30;;;;;;;11.10;1.80;;;4.20;99.90;;;;;;5106752;27;20553;-75
2022/01/20 06:57:57;;;;;;;10.93;2.37;;;4.10;99.90;;;;;;5095629;28;20647;-75
2022/01/20 07:00:24;;;;;;;16.00;2.70;;;4.20;99.90;;;;;;5107725;27;20214;-76
2022/01/20 07:02:52;;;;;;;7.87;2.33;;;4.10;99.90;;;;;;5109339;27;20258;-75
2022/01/20 07:05:20;;;;;;;14.03;2.30;;;4.10;99.90;;;;;;5101593;27;20215;-76
2022/01/20 07:07:47;;;;;;;8.83;2.53;;;4.10;99.90;;;;;;5107237;27;20313;-76
2022/01/20 07:10:18;;;;;;;15.13;2.50;;;4.10;99.90;;;;;;5113715;27;20237;-76
2022/01/20 07:12:46;;;;;;;6.13;2.27;;;4.00;99.90;;;;;;5096978;27;20285;-77
2022/01/20 07:15:15;;;;;;;8.53;2.33;;;4.00;99.90;;;;;;5101469;27;20215;-76
2022/01/20 07:17:42;;;;;;;9.27;2.07;;;3.90;99.90;;;;;;5101569;27;20217;-75
2022/01/20 07:20:09;;;;;;;10.97;2.20;;;3.80;99.90;;;;;;5104340;27;20283;-76
2022/01/20 07:22:36;;;;;;;12.57;3.10;;;3.70;99.90;;;;;;5095586;28;20661;-76
2022/01/20 07:25:04;;;;;;;7.87;1.87;;;3.70;99.90;;;;;;5111861;27;20209;-75
2022/01/20 07:27:32;;;;;;;7.97;1.97;;;3.70;99.90;;;;;;5113408;27;20206;-76
2022/01/20 07:30:19;;;;;;;10.87;1.90;;;3.70;99.90;;;;;;5106650;27;20215;-75
2022/01/20 07:32:47;;;;;;;11.50;2.07;;;3.80;99.90;;;;;;5099993;27;20219;-76
2022/01/20 07:35:13;;;;;;;9.83;2.13;;;3.80;99.90;;;;;;5111596;27;20226;-76
2022/01/20 07:37:40;;;;;;;10.37;2.07;;;3.80;99.90;;;;;;5106336;27;20293;-75
2022/01/20 07:40:07;;;;;;;8.97;1.90;;;3.80;99.90;;;;;;5107794;27;20235;-76
2022/01/20 07:42:34;;;;;;;9.77;2.07;;;3.80;99.90;;;;;;5107611;27;20199;-76
2022/01/20 07:45:01;;;;;;;11.37;1.97;;;3.80;99.90;;;;;;5111497;27;20199;-77
2022/01/20 07:47:27;;;;;;;8.77;1.90;;;3.80;99.90;;;;;;5091162;28;20226;-76
2022/01/20 07:49:54;;;;;;;8.77;1.90;;;3.80;99.90;;;;;;5101305;28;20230;-77
2022/01/20 07:52:21;;;;;;;10.03;2.33;;;3.80;99.90;;;;;;5095111;28;20203;-76
2022/01/20 07:54:48;;;;;;;8.80;2.20;;;3.80;99.90;;;;;;5106511;27;20213;-77
2022/01/20 07:57:15;;;;;;;9.50;1.77;;;3.80;99.90;;;;;;5105882;28;20598;-77
2022/01/20 07:59:41;;;;;;;5.40;1.77;;;3.80;99.90;;;;;;5113785;28;20646;-76
2022/01/20 08:02:08;;;;;;;15.43;2.23;;;3.80;99.90;;;;;;5110636;28;20244;-77
2022/01/20 08:04:35;;;;;;;10.57;2.43;;;3.80;99.90;;;;;;5090358;28;20202;-75
2022/01/20 08:07:02;;;;;;;12.57;2.73;;;3.80;99.90;;;;;;5111420;28;20202;-76
2022/01/20 08:09:29;;;;;;;7.23;2.40;;;3.80;99.90;;;;;;5107464;28;20326;-76
2022/01/20 08:12:15;;;;;;;9.87;2.13;;;3.80;99.90;;;;;;5108235;28;20214;-76
2022/01/20 08:14:42;;;;;;;7.77;2.03;;;3.80;99.90;;;;;;5089949;28;20285;-75
2022/01/20 08:17:09;;;;;;;11.07;2.00;;;3.80;99.90;;;;;;5115885;28;20214;-76
2022/01/20 08:19:36;;;;;;;16.93;2.17;;;3.90;99.90;;;;;;5087568;28;20633;-75
2022/01/20 08:22:03;;;;;;;12.37;2.93;;;3.80;99.90;;;;;;5099466;28;20214;-76
2022/01/20 08:24:52;;;;;;;10.67;2.43;;;3.80;99.90;;;;;;5107025;28;20202;-76
2022/01/20 08:27:20;;;;;;;13.30;2.33;;;3.90;99.90;;;;;;5107643;28;20294;-76
2022/01/20 08:29:47;;;;;;;8.17;2.37;;;3.90;99.90;;;;;;5108392;28;20241;-76
2022/01/20 08:32:14;;;;;;;15.43;2.23;;;3.90;99.90;;;;;;5111862;28;20248;-76
2022/01/20 08:34:41;;;;;;;9.13;1.70;;;3.90;99.90;;;;;;5093969;28;20207;-76
2022/01/20 08:37:07;;;;;;;8.73;2.37;;;4.00;99.90;;;;;;5093583;28;20220;-77
2022/01/20 08:42:04;;;;;;;11.57;2.60;;;4.00;99.90;;;;;;5109672;28;20202;-76
2022/01/20 08:44:31;;;;;;;8.23;2.27;;;4.00;99.90;;;;;;5110240;28;20692;-76
2022/01/20 08:46:58;;;;;;;11.20;2.47;;;4.00;99.90;;;;;;5099726;27;20346;-76
2022/01/20 08:49:25;;;;;;;11.33;2.30;;;4.10;99.90;;;;;;5116059;27;20685;-76
2022/01/20 08:51:52;;;;;;;12.73;2.03;;;4.10;99.90;;;;;;5109538;27;20663;-76
2022/01/20 08:54:19;;;;;;;16.20;2.57;;;4.10;99.90;;;;;;5096145;28;20785;-78
2022/01/20 08:56:47;;;;;;;12.90;2.20;;;4.10;99.90;;;;;;5112780;27;20203;-76
2022/01/20 08:59:13;;;;;;;13.90;2.60;;;4.10;99.90;;;;;;5112773;27;20205;-77
2022/01/20 09:01:41;;;;;;;11.83;2.30;;;4.10;99.90;;;;;;5109066;27;20223;-77
2022/01/20 09:04:08;;;;;;;12.90;2.70;;;4.20;99.90;;;;;;5112287;27;20194;-77
2022/01/20 09:06:35;;;;;;;11.20;2.00;;;4.10;99.90;;;;;;5105509;27;20253;-76
2022/01/20 09:09:02;;;;;;;12.77;2.67;;;4.10;99.90;;;;;;5106736;27;20788;-76
2022/01/20 09:11:36;;;;;;;9.07;2.40;;;4.20;99.90;;;;;;5094993;28;20215;-76
2022/01/20 09:16:49;;;;;;;16.97;2.70;;;4.20;99.90;;;;;;5106479;27;20223;-77
2022/01/20 09:19:17;;;;;;;8.97;2.00;;;4.30;99.90;;;;;;5108137;27;20245;-77
2022/01/20 09:21:44;;;;;;;8.03;2.50;;;4.30;99.90;;;;;;5112560;27;20325;-77
2022/01/20 09:24:12;;;;;;;11.23;2.40;;;4.30;99.90;;;;;;5113459;27;20248;-77
2022/01/20 09:26:38;;;;;;;8.17;2.10;;;4.30;99.90;;;;;;5111944;27;20739;-76
2022/01/20 09:29:05;;;;;;;7.07;2.30;;;4.30;99.90;;;;;;5113586;27;20226;-77
2022/01/20 09:31:37;;;;;;;10.37;3.23;;;4.30;99.90;;;;;;5112893;27;20213;-77
2022/01/20 09:34:04;;;;;;;14.63;3.33;;;4.30;99.90;;;;;;5112948;27;20419;-76
2022/01/20 09:36:31;;;;;;;17.70;2.63;;;4.30;99.90;;;;;;5107652;27;20226;-77
2022/01/20 09:38:58;;;;;;;18.40;3.03;;;4.30;99.90;;;;;;5113676;27;20996;-76
2022/01/20 09:41:25;;;;;;;12.63;2.67;;;4.30;99.90;;;;;;5103834;27;20227;-76
2022/01/20 09:43:53;;;;;;;15.03;2.80;;;4.40;99.90;;;;;;5087864;27;20337;-76
2022/01/20 09:46:20;;;;;;;9.93;2.47;;;4.40;99.90;;;;;;5098321;28;20213;-76
2022/01/20 09:48:47;;;;;;;14.27;2.80;;;4.50;99.90;;;;;;5097252;27;20229;-76
2022/01/20 09:51:13;;;;;;;12.53;2.37;;;4.60;99.90;;;;;;5107093;27;20770;-76
2022/01/20 09:53:40;;;;;;;9.50;2.57;;;4.70;99.90;;;;;;5107311;27;20220;-76
2022/01/20 09:56:07;;;;;;;9.73;2.60;;;4.70;99.90;;;;;;5109012;27;20719;-76
2022/01/20 09:58:36;;;;;;;9.87;2.80;;;4.70;99.90;;;;;;5108315;27;20664;-76
2022/01/20 10:01:03;;;;;;;15.67;2.73;;;4.60;99.90;;;;;;5111362;27;20294;-76
2022/01/20 10:03:31;;;;;;;19.70;2.70;;;4.60;99.90;;;;;;5095281;28;20207;-76
2022/01/20 10:06:00;;;;;;;9.03;2.30;;;4.60;99.90;;;;;;5111319;27;20215;-76
2022/01/20 10:08:28;;;;;;;17.97;3.30;;;4.50;99.90;;;;;;5109096;27;20964;-76
2022/01/20 10:10:58;;;;;;;12.63;2.37;;;4.50;99.90;;;;;;5109167;27;20219;-76
2022/01/20 10:13:32;;;;;;;6.77;2.20;;;4.50;99.90;;;;;;5113313;27;20203;-76
2022/01/20 10:16:01;;;;;;;18.30;2.57;;;4.50;99.90;;;;;;5102009;27;20216;-76
2022/01/20 10:18:29;;;;;;;13.43;2.53;;;4.50;99.90;;;;;;5106374;27;20301;-76
2022/01/20 10:20:59;;;;;;;12.27;2.30;;;4.50;99.90;;;;;;5096998;27;20200;-76
2022/01/20 10:23:42;;;;;;;9.07;2.23;;;4.50;99.90;;;;;;5110332;27;20200;-76
2022/01/20 10:26:16;;;;;;;12.40;2.30;;;4.60;99.90;;;;;;5106539;27;20289;-77
2022/01/20 10:29:19;;;;;;;11.47;2.30;;;4.60;99.90;;;;;;5115965;27;20790;-77
2022/01/20 10:32:06;;;;;;;9.20;2.23;;;4.80;99.90;;;;;;5078697;27;20235;-74
2022/01/20 10:34:35;;;;;;;6.67;1.80;;;4.90;99.90;;;;;;5105037;27;20620;-76
2022/01/20 10:37:15;;;;;;;12.10;2.63;;;5.00;99.90;;;;;;5110834;27;20214;-76
2022/01/20 10:39:45;;;;;;;12.83;2.20;;;5.10;99.90;;;;;;5102017;28;20279;-76
2022/01/20 10:42:25;;;;;;;6.53;2.60;;;5.20;99.90;;;;;;5110654;27;20211;-76
2022/01/20 10:44:54;;;;;;;5.53;1.93;;;5.20;99.90;;;;;;5110995;27;20225;-77
2022/01/20 10:47:33;;;;;;;14.97;2.30;;;5.30;99.90;;;;;;5110208;27;20600;-76
2022/01/20 10:50:11;;;;;;;12.13;2.03;;;5.30;99.90;;;;;;5110225;27;20941;-76
2022/01/20 10:52:43;;;;;;;8.23;2.57;;;5.40;99.90;;;;;;5111846;27;20294;-75
2022/01/20 10:55:24;;;;;;;11.13;1.93;;;5.40;99.90;;;;;;5107654;27;20230;-75
2022/01/20 10:58:07;;;;;;;12.73;2.40;;;5.40;99.90;;;;;;5105781;27;20207;-76
2022/01/20 11:00:48;;;;;;;9.10;2.23;;;5.40;99.90;;;;;;5111653;27;20220;-75
2022/01/20 11:03:15;;;;;;;6.00;1.90;;;5.50;99.90;;;;;;5109132;27;20462;-77
2022/01/20 11:05:49;;;;;;;7.87;2.20;;;5.50;99.90;;;;;;5106364;27;20203;-74
2022/01/20 11:08:16;;;;;;;8.80;2.20;;;5.50;99.90;;;;;;5103542;28;20901;-76
2022/01/20 11:10:44;;;;;;;10.97;2.23;;;5.50;99.90;;;;;;5110910;27;20745;-77
2022/01/20 11:13:13;;;;;;;7.33;2.10;;;5.50;99.90;;;;;;5095156;28;20296;-76
2022/01/20 11:15:41;;;;;;;8.43;2.07;;;5.40;99.90;;;;;;5091482;28;20210;-76
2022/01/20 11:18:09;;;;;;;9.70;2.03;;;5.40;99.90;;;;;;5095747;27;20211;-75
2022/01/20 11:20:46;;;;;;;10.93;2.40;;;5.30;99.90;;;;;;5107182;27;20208;-76
2022/01/20 11:23:13;;;;;;;14.17;2.40;;;5.30;99.90;;;;;;5108627;27;20201;-75
2022/01/20 11:25:43;;;;;;;7.73;2.30;;;5.40;99.90;;;;;;5107487;27;20212;-75
2022/01/20 11:28:17;;;;;;;15.40;2.80;;;5.40;99.90;;;;;;5107761;27;20666;-76
2022/01/20 11:31:06;;;;;;;12.73;2.40;;;5.50;99.90;;;;;;5108878;27;20312;-77
2022/01/20 11:33:38;;;;;;;7.37;2.00;;;5.40;99.90;;;;;;5097454;28;20755;-75
2022/01/20 11:36:20;;;;;;;8.13;1.53;;;5.50;99.90;;;;;;5113424;27;20286;-76
2022/01/20 11:39:07;;;;;;;8.50;2.23;;;5.40;99.90;;;;;;5109066;28;20203;-77
2022/01/20 11:41:49;;;;;;;5.30;1.63;;;5.30;99.90;;;;;;5074277;28;20399;-76
2022/01/20 11:44:23;;;;;;;5.97;1.73;;;5.20;99.90;;;;;;5071312;28;20209;-76
2022/01/20 11:46:52;;;;;;;9.17;1.80;;;5.10;99.90;;;;;;5046973;28;20663;-76
2022/01/20 11:49:20;;;;;;;6.53;1.70;;;5.10;99.90;;;;;;5064012;28;20231;-76
2022/01/20 11:51:57;;;;;;;5.13;1.43;;;5.10;99.90;;;;;;5075104;28;20208;-77
2022/01/20 11:54:31;;;;;;;6.23;1.80;;;5.10;99.90;;;;;;5069662;28;20207;-75
2022/01/20 11:57:12;;;;;;;8.37;1.63;;;5.10;99.90;;;;;;5070049;28;20254;-77
2022/01/20 11:59:42;;;;;;;3.77;1.63;;;5.10;99.90;;;;;;5065986;28;20403;-76
2022/01/20 12:02:09;;;;;;;10.43;1.97;;;5.10;99.90;;;;;;5049885;28;20223;-76
2022/01/20 12:04:40;;;;;;;9.10;1.97;;;5.10;99.90;;;;;;5059573;28;20219;-76
2022/01/20 12:07:11;;;;;;;11.80;2.17;;;5.10;99.90;;;;;;5067657;28;20211;-75
2022/01/20 12:09:40;;;;;;;5.73;1.83;;;4.90;99.90;;;;;;5069111;28;20230;-77
2022/01/20 12:12:21;;;;;;;5.00;2.07;;;4.90;99.90;;;;;;5074872;28;20675;-76
2022/01/20 12:14:48;;;;;;;13.77;3.27;;;4.70;99.90;;;;;;5068026;28;20294;-76
2022/01/20 12:17:15;;;;;;;10.93;2.30;;;4.70;99.90;;;;;;5073081;28;20761;-77
2022/01/20 12:19:53;;;;;;;7.37;1.90;;;4.70;99.90;;;;;;5061846;28;20204;-77
2022/01/20 12:22:20;;;;;;;8.83;2.17;;;4.70;99.90;;;;;;5056979;28;20205;-76
2022/01/20 12:24:57;;;;;;;9.17;1.90;;;4.70;99.90;;;;;;5076172;28;20236;-77
2022/01/20 12:27:25;;;;;;;9.07;2.10;;;4.70;99.90;;;;;;5071662;28;20689;-75
2022/01/20 12:29:53;;;;;;;9.77;2.30;;;4.80;99.90;;;;;;5074403;28;20574;-77
2022/01/20 12:32:21;;;;;;;10.33;1.97;;;4.90;99.90;;;;;;5059059;28;20707;-77
2022/01/20 12:34:59;;;;;;;7.27;1.90;;;5.00;99.90;;;;;;5071893;28;20249;-76
2022/01/20 12:37:37;;;;;;;9.97;1.93;;;5.10;99.90;;;;;;5072789;28;20239;-76
2022/01/20 12:40:18;;;;;;;12.63;2.83;;;5.20;99.90;;;;;;5084193;27;20241;-76
2022/01/20 12:42:44;;;;;;;6.90;1.87;;;5.30;99.90;;;;;;5110579;27;20218;-77
2022/01/20 12:48:15;;;;;;;9.87;2.53;;;5.40;99.90;;;;;;5111109;27;20265;-76
2022/01/20 12:50:52;;;;;;;8.57;1.93;;;5.30;99.90;;;;;;5113564;27;20537;-76
2022/01/20 12:53:20;;;;;;;7.40;2.17;;;5.40;99.90;;;;;;5113258;27;20268;-75
2022/01/20 12:55:53;;;;;;;6.80;1.30;;;5.40;99.90;;;;;;5101865;27;20253;-75
2022/01/20 12:58:19;;;;;;;7.77;1.63;;;5.50;99.90;;;;;;5113446;27;20213;-76
2022/01/20 13:00:58;;;;;;;6.57;2.00;;;5.40;99.90;;;;;;5110491;27;20200;-76
2022/01/20 13:03:39;;;;;;;6.20;1.93;;;5.50;99.90;;;;;;5107142;27;20259;-76
2022/01/20 13:06:11;;;;;;;10.10;1.90;;;5.50;99.90;;;;;;5115997;27;20732;-76
2022/01/20 13:08:41;;;;;;;8.60;1.70;;;5.50;99.90;;;;;;5111071;27;20212;-78
2022/01/20 13:11:13;;;;;;;11.27;1.93;;;5.40;99.90;;;;;;5110126;27;20237;-75
2022/01/20 13:13:40;;;;;;;9.17;2.13;;;5.40;99.90;;;;;;5113853;27;20249;-76
2022/01/20 13:16:15;;;;;;;11.33;2.30;;;5.40;99.90;;;;;;5112206;27;20648;-76
2022/01/20 13:19:00;;;;;;;7.93;1.63;;;5.30;99.90;;;;;;5107888;27;20654;-76
2022/01/20 13:21:52;;;;;;;7.03;1.83;;;5.30;99.90;;;;;;5072679;28;20195;-75
2022/01/20 13:24:26;;;;;;;9.23;1.80;;;5.20;99.90;;;;;;5110157;27;20294;-77
2022/01/20 13:26:54;;;;;;;5.37;1.80;;;5.20;99.90;;;;;;5100677;27;20682;-76
2022/01/20 13:29:22;;;;;;;9.83;2.20;;;5.20;99.90;;;;;;5108114;27;20236;-76
2022/01/20 13:31:51;;;;;;;6.07;2.03;;;5.20;99.90;;;;;;5110238;27;20227;-78
2022/01/20 13:34:19;;;;;;;8.63;1.83;;;5.20;99.90;;;;;;5111829;27;20295;-76
2022/01/20 13:36:51;;;;;;;8.20;2.23;;;5.20;99.90;;;;;;5092580;27;20280;-79
2022/01/20 13:39:38;;;;;;;8.10;1.93;;;5.20;99.90;;;;;;5114494;27;20205;-76
2022/01/20 13:42:25;;;;;;;4.60;1.70;;;5.10;99.90;;;;;;5114419;27;20209;-76
2022/01/20 13:45:15;;;;;;;9.13;2.37;;;5.10;99.90;;;;;;5108925;27;20456;-76
2022/01/20 13:47:46;;;;;;;10.80;1.80;;;5.10;99.90;;;;;;5114398;27;20759;-76
2022/01/20 13:50:19;;;;;;;11.67;1.87;;;5.10;99.90;;;;;;5107609;27;21141;-76
2022/01/20 13:52:46;;;;;;;8.47;2.23;;;5.10;99.90;;;;;;5105343;27;20196;-79
2022/01/20 13:55:25;;;;;;;8.13;1.80;;;5.10;99.90;;;;;;5111257;27;20560;-80
2022/01/20 13:57:53;;;;;;;8.33;2.17;;;5.20;99.90;;;;;;5114452;27;20340;-81
2022/01/20 14:00:22;;;;;;;12.13;2.10;;;5.30;99.90;;;;;;5097264;28;20573;-80
2022/01/20 14:02:50;;;;;;;10.20;2.27;;;5.30;99.90;;;;;;5105882;28;20227;-80
2022/01/20 14:05:19;;;;;;;11.20;2.53;;;5.40;99.90;;;;;;5112752;27;20289;-80
2022/01/20 14:07:47;;;;;;;6.97;1.93;;;5.50;99.90;;;;;;5109823;27;20714;-80